Página principal
METAR-TAF:

METAR-TAF

Aeroportos :

Seul-Incheon, Coreia do Sul

Aeroporto Internacional de Incheon

latitude: 37-28N, longitude: 126-27E, altura: 7 m

Observação actual do tempo

O boletim foi feito há 44 minutos, às 01:00 UTC
Vento 7 kt de es-sudeste, variando entre es-nordeste e sudeste
Temperatura 17°C
Humidade 52%
Pressão 1024 hPa
Visibilidade 10 km ou mais
sem nuvens abaixo de 1500 metros e sem cumulonimbus

METAR: RKSI 180100Z 11007KT 070V140 CAVOK 17/07 Q1024 NOSIG

Hora: 10:44 (01:44 UTC)

Previsão

O boletim foi feito há 2 horas e 44 minutos, às 23:00 UTC
Previsão válida de 18 às 00 UTC a 19 às 06 UTC
Vento 7 kt de sudeste
Visibilidade 10 km ou mais
Nuvens dispersasa uma altura de 3000 ft
Nuvens fragmentadasa uma altura de 12000 ft
Tornando-se
de 18 às 13 UTC a 18 às 14 UTC
Vento 6 kt de es-nordeste

TAF: RKSI 172300Z 1800/1906 13007KT 9999 SCT030 BKN120 TX18/1806Z TN12/1820Z TX18/1905Z BECMG 1813/1814 06006KT

Observações e previsões do tempo de mais de 4000 aeroportos (mensagens METAR e TAF).

As estações disponíveis são os pontos amarelos e vermelhos sobre o mapa.

Mova o rato sobre o mapa para ver o nome da estação.

Depois clique no ponto para visualizar as observações e previsões meteorológicas.

Para alterar o mapa : clique nos botões verdes com uma cruz preta para aumentar o zoom; no botão verde com uma pitada de zoom; ou nas setas verdes para mapas adjacentes.


METAR-TAF: